createdAt,value
2018-07-24T00:01:04.456Z,100350.23
2018-07-24T00:03:33.265Z,100348.45
2018-07-24T00:06:11.250Z,100343.19
2018-07-24T00:08:39.770Z,100345.42
2018-07-24T00:11:08.398Z,100344.00
2018-07-24T00:13:37.341Z,100345.87
2018-07-24T00:16:06.436Z,100340.16
2018-07-24T00:18:35.098Z,100341.41
2018-07-24T00:21:04.304Z,100343.30
2018-07-24T00:23:32.863Z,100340.14
2018-07-24T00:26:01.564Z,100341.60
2018-07-24T00:28:32.002Z,100342.67
2018-07-24T00:31:01.937Z,100338.11
2018-07-24T00:33:32.093Z,100335.53
2018-07-24T00:36:10.384Z,100342.48
2018-07-24T00:38:41.353Z,100341.89
2018-07-24T00:41:11.253Z,100333.66
2018-07-24T00:43:41.517Z,100331.09
2018-07-24T00:46:11.953Z,100337.27
2018-07-24T00:48:40.828Z,100333.91
2018-07-24T00:51:09.745Z,100335.03
2018-07-24T00:53:38.744Z,100330.68
2018-07-24T00:56:07.798Z,100327.13
2018-07-24T00:58:38.247Z,100328.64
2018-07-24T01:01:07.101Z,100331.52
2018-07-24T01:03:36.804Z,100327.81
2018-07-24T01:06:05.608Z,100329.76
2018-07-24T01:08:35.061Z,100329.76
2018-07-24T01:11:04.282Z,100324.98
2018-07-24T01:13:35.402Z,100320.66
2018-07-24T01:19:02.798Z,100321.89
2018-07-24T01:21:31.602Z,100321.13
2018-07-24T01:24:02.378Z,100324.39
2018-07-24T01:26:37.792Z,100329.20
2018-07-24T01:29:06.815Z,100335.25
2018-07-24T01:31:36.236Z,100339.95
2018-07-24T01:34:05.120Z,100337.31
2018-07-24T01:36:34.098Z,100334.28
2018-07-24T01:39:02.778Z,100334.50
2018-07-24T01:41:31.219Z,100324.10
2018-07-24T01:43:59.822Z,100329.59
2018-07-24T01:46:46.984Z,100328.56
2018-07-24T01:49:15.520Z,100327.64
2018-07-24T01:51:44.722Z,100334.28
2018-07-24T01:54:13.226Z,100330.42
2018-07-24T01:56:42.060Z,100337.35
2018-07-24T01:59:10.892Z,100331.86
2018-07-24T02:01:39.571Z,100322.52
2018-07-24T02:04:08.036Z,100322.52
2018-07-24T02:09:29.312Z,100324.10
2018-07-24T02:11:57.928Z,100323.84
2018-07-24T02:14:26.654Z,100330.19
2018-07-24T02:17:17.760Z,100322.78
2018-07-24T02:19:46.503Z,100331.06
2018-07-24T02:22:15.340Z,100331.77
2018-07-24T02:24:43.922Z,100327.63
2018-07-24T02:27:13.150Z,100329.63
2018-07-24T02:29:41.690Z,100323.73
2018-07-24T02:32:10.299Z,100326.37
2018-07-24T02:34:39.004Z,100326.52
2018-07-24T02:37:16.978Z,100325.16
2018-07-24T02:39:45.830Z,100320.88
2018-07-24T02:42:14.277Z,100322.48
2018-07-24T02:44:42.859Z,100319.15
2018-07-24T02:50:04.678Z,100326.13
2018-07-24T02:52:33.218Z,100323.78
2018-07-24T02:55:02.598Z,100327.56
2018-07-24T03:00:23.193Z,100324.98
2018-07-24T03:02:52.352Z,100325.92
2018-07-24T03:05:20.867Z,100321.06
2018-07-24T03:07:49.376Z,100325.84
2018-07-24T03:10:18.199Z,100321.70
2018-07-24T03:12:46.808Z,100325.77
2018-07-24T03:15:15.862Z,100326.89
2018-07-24T03:17:44.770Z,100322.64
2018-07-24T03:20:13.496Z,100321.80
2018-07-24T03:22:42.322Z,100331.73
2018-07-24T03:25:11.920Z,100332.81
2018-07-24T03:27:41.414Z,100339.95
2018-07-24T03:30:10.851Z,100337.02
2018-07-24T03:32:39.642Z,100333.45
2018-07-24T03:35:08.558Z,100332.81
2018-07-24T03:43:29.220Z,100327.67
2018-07-24T03:46:11.614Z,100332.81
2018-07-24T03:48:40.732Z,100337.43
2018-07-24T03:51:09.762Z,100335.08
2018-07-24T03:53:38.866Z,100335.89
2018-07-24T03:56:08.201Z,100333.95
2018-07-24T03:58:37.128Z,100336.08
2018-07-24T04:01:06.520Z,100335.89
2018-07-24T04:03:35.308Z,100333.73
2018-07-24T04:11:58.880Z,100339.28
2018-07-24T04:14:49.856Z,100339.28
2018-07-24T04:17:22.060Z,100336.22
2018-07-24T04:22:43.334Z,100338.37
2018-07-24T04:25:23.878Z,100339.36
2018-07-24T04:27:53.526Z,100335.89
2018-07-24T04:30:22.810Z,100332.59
2018-07-24T04:32:52.313Z,100335.94
2018-07-24T04:35:27.099Z,100336.60
2018-07-24T04:37:56.093Z,100339.86
2018-07-24T04:40:27.341Z,100338.31
2018-07-24T04:42:56.878Z,100331.19
2018-07-24T04:45:26.098Z,100331.41
2018-07-24T04:47:55.813Z,100333.31
2018-07-24T04:50:26.018Z,100330.97
2018-07-24T04:52:55.170Z,100334.53
2018-07-24T04:55:29.278Z,100335.88
2018-07-24T04:57:58.737Z,100331.68
2018-07-24T05:00:28.327Z,100336.95
2018-07-24T05:02:57.337Z,100333.34
2018-07-24T05:05:26.314Z,100336.31
2018-07-24T05:07:55.962Z,100335.32
2018-07-24T05:10:25.442Z,100332.91
2018-07-24T05:12:55.946Z,100338.96
2018-07-24T05:15:24.596Z,100333.55
2018-07-24T05:17:53.288Z,100333.98
2018-07-24T05:20:22.102Z,100331.91
2018-07-24T05:22:51.913Z,100337.77
2018-07-24T05:25:24.056Z,100336.45
2018-07-24T05:27:53.229Z,100336.98
2018-07-24T05:30:22.510Z,100346.42
2018-07-24T05:32:51.508Z,100347.68
2018-07-24T05:35:21.674Z,100351.05
2018-07-24T05:37:50.473Z,100348.05
2018-07-24T05:40:19.458Z,100351.17
2018-07-24T05:42:48.443Z,100356.23
2018-07-24T05:45:17.200Z,100357.44
2018-07-24T05:47:46.040Z,100362.31
2018-07-24T05:50:15.036Z,100362.79
2018-07-24T05:52:43.520Z,100361.65
2018-07-24T05:55:12.444Z,100362.42
2018-07-24T05:57:41.124Z,100363.23
2018-07-24T06:00:09.852Z,100363.63
2018-07-24T06:02:38.606Z,100361.95
2018-07-24T06:05:07.314Z,100364.51
2018-07-24T06:07:45.188Z,100363.16
2018-07-24T06:10:13.664Z,100366.92
2018-07-24T06:12:42.522Z,100363.89
2018-07-24T06:15:11.160Z,100368.32
2018-07-24T06:17:53.388Z,100367.38
2018-07-24T06:20:21.927Z,100360.81
2018-07-24T06:22:50.467Z,100359.97
2018-07-24T06:25:19.774Z,100366.97
2018-07-24T06:27:48.498Z,100363.34
2018-07-24T06:30:17.306Z,100364.88
2018-07-24T06:32:46.280Z,100368.43
2018-07-24T06:35:15.263Z,100363.96
2018-07-24T06:37:49.290Z,100363.23
2018-07-24T06:40:17.961Z,100360.53
2018-07-24T06:42:47.057Z,100365.51
2018-07-24T06:45:15.610Z,100365.39
2018-07-24T06:47:45.117Z,100362.19
2018-07-24T06:50:14.290Z,100359.36
2018-07-24T06:52:43.558Z,100359.05
2018-07-24T06:55:12.538Z,100355.64
2018-07-24T07:00:43.830Z,100346.81
2018-07-24T07:03:12.687Z,100348.39
2018-07-24T07:05:41.829Z,100347.09
2018-07-24T07:08:11.031Z,100355.27
2018-07-24T07:10:39.785Z,100357.11
2018-07-24T07:13:08.836Z,100354.09
2018-07-24T07:15:39.038Z,100358.62
2018-07-24T07:18:17.643Z,100354.82
2018-07-24T07:20:46.425Z,100350.41
2018-07-24T07:23:15.410Z,100347.93
2018-07-24T07:25:44.275Z,100352.87
2018-07-24T07:33:59.028Z,100346.92
2018-07-24T07:36:28.115Z,100347.22
2018-07-24T07:38:58.625Z,100343.80
2018-07-24T07:41:27.685Z,100344.60
2018-07-24T07:43:56.855Z,100338.80
2018-07-24T07:46:25.825Z,100338.35
2018-07-24T07:48:55.401Z,100333.83
2018-07-24T07:51:24.930Z,100335.07
2018-07-24T07:53:54.055Z,100328.53
2018-07-24T07:56:22.877Z,100332.84
2018-07-24T07:58:51.811Z,100333.09
2018-07-24T08:01:20.267Z,100325.37
2018-07-24T08:03:48.811Z,100323.84
2018-07-24T08:06:17.711Z,100328.34
2018-07-24T08:08:47.489Z,100326.39
2018-07-24T08:11:16.087Z,100320.23
2018-07-24T08:13:45.679Z,100322.36
2018-07-24T08:19:16.247Z,100327.29
2018-07-24T08:21:44.973Z,100322.31
2018-07-24T08:24:13.552Z,100321.59
2018-07-24T08:26:52.777Z,100326.52
2018-07-24T08:29:21.344Z,100324.46
2018-07-24T08:31:49.923Z,100319.79
2018-07-24T08:34:18.440Z,100321.73
2018-07-24T08:36:46.927Z,100317.80
2018-07-24T08:39:15.371Z,100311.63
2018-07-24T08:41:43.956Z,100311.66
2018-07-24T08:44:12.401Z,100315.14
2018-07-24T08:46:41.012Z,100312.60
2018-07-24T08:49:09.550Z,100312.50
2018-07-24T08:51:37.908Z,100306.50
2018-07-24T08:54:10.502Z,100305.14
2018-07-24T08:56:38.929Z,100314.07
2018-07-24T08:59:07.699Z,100309.05
2018-07-24T09:01:36.242Z,100313.93
2018-07-24T09:04:04.823Z,100311.66
2018-07-24T09:06:33.242Z,100307.25
2018-07-24T09:09:01.975Z,100304.95
2018-07-24T09:11:30.554Z,100302.88
2018-07-24T09:14:00.217Z,100310.73
2018-07-24T09:16:28.751Z,100307.25
2018-07-24T09:18:57.383Z,100303.16
2018-07-24T09:21:25.907Z,100299.09
2018-07-24T09:23:54.372Z,100300.28
2018-07-24T09:26:23.001Z,100304.77
2018-07-24T09:28:51.474Z,100288.30
2018-07-24T09:31:20.134Z,100287.34
2018-07-24T09:33:48.645Z,100290.09
2018-07-24T09:36:17.122Z,100285.30
2018-07-24T09:38:45.639Z,100283.82
2018-07-24T09:41:14.352Z,100293.98
2018-07-24T09:43:42.835Z,100277.22
2018-07-24T09:46:11.341Z,100284.46
2018-07-24T09:48:40.008Z,100275.09
2018-07-24T09:51:08.851Z,100279.78
2018-07-24T09:53:37.287Z,100276.27
2018-07-24T09:56:05.873Z,100279.81
2018-07-24T09:58:34.565Z,100277.70
2018-07-24T10:01:08.342Z,100270.28
2018-07-24T10:03:36.967Z,100265.39
2018-07-24T10:06:05.412Z,100267.73
2018-07-24T10:08:33.903Z,100262.05
2018-07-24T10:11:02.549Z,100254.42
2018-07-24T10:13:31.146Z,100251.33
2018-07-24T10:15:59.897Z,100251.89
2018-07-24T10:18:28.745Z,100250.92
2018-07-24T10:20:57.333Z,100247.58
2018-07-24T10:23:25.797Z,100246.16
2018-07-24T10:25:54.174Z,100240.44
2018-07-24T10:28:22.683Z,100240.37
2018-07-24T10:30:51.182Z,100237.43
2018-07-24T10:33:19.767Z,100235.63
2018-07-24T10:35:48.331Z,100235.77
2018-07-24T10:38:16.997Z,100235.75
2018-07-24T10:40:45.701Z,100235.50
2018-07-24T10:43:14.265Z,100234.70
2018-07-24T10:45:43.228Z,100225.56
2018-07-24T10:48:11.777Z,100230.25
2018-07-24T10:50:40.361Z,100225.70
2018-07-24T10:53:08.899Z,100218.56
2018-07-24T10:55:37.672Z,100218.05
2018-07-24T10:58:06.372Z,100215.92
2018-07-24T11:00:34.841Z,100211.73
2018-07-24T11:03:03.363Z,100202.59
2018-07-24T11:05:32.001Z,100212.23
2018-07-24T11:08:00.642Z,100204.25
2018-07-24T11:10:29.733Z,100198.19
2018-07-24T11:12:58.194Z,100196.85
2018-07-24T11:15:27.051Z,100190.57
2018-07-24T11:17:55.596Z,100192.08
2018-07-24T11:20:24.344Z,100189.59
2018-07-24T11:22:53.007Z,100181.36
2018-07-24T11:25:21.444Z,100186.66
2018-07-24T11:27:49.964Z,100184.14
2018-07-24T11:30:18.700Z,100177.02
2018-07-24T11:32:47.717Z,100178.94
2018-07-24T11:35:16.439Z,100178.62
2018-07-24T11:37:45.154Z,100173.75
2018-07-24T11:40:13.686Z,100175.53
2018-07-24T11:42:42.132Z,100167.99
2018-07-24T11:45:10.632Z,100165.09
2018-07-24T11:47:39.687Z,100168.53
2018-07-24T11:50:08.127Z,100164.73
2018-07-24T11:52:36.492Z,100170.03
2018-07-24T11:55:05.010Z,100163.65
2018-07-24T11:57:33.809Z,100164.19
2018-07-24T12:00:02.220Z,100160.25
2018-07-24T12:02:30.934Z,100161.91
2018-07-24T12:04:59.431Z,100157.17
2018-07-24T12:07:27.830Z,100150.47
2018-07-24T12:09:56.309Z,100153.52
2018-07-24T12:12:24.798Z,100149.72
2018-07-24T12:14:53.450Z,100148.23
2018-07-24T12:17:21.926Z,100136.80
2018-07-24T12:19:50.519Z,100137.70
2018-07-24T12:22:19.031Z,100128.09
2018-07-24T12:24:47.830Z,100130.42
2018-07-24T12:27:21.451Z,100125.45
2018-07-24T12:29:50.791Z,100127.45
2018-07-24T12:32:19.378Z,100124.28
2018-07-24T12:34:47.909Z,100119.89
2018-07-24T12:37:16.405Z,100120.43
2018-07-24T12:39:44.867Z,100119.11
2018-07-24T12:42:13.629Z,100120.80
2018-07-24T12:44:42.408Z,100124.11
2018-07-24T12:47:10.997Z,100115.83
2018-07-24T12:49:39.655Z,100111.66
2018-07-24T12:52:08.061Z,100112.52
2018-07-24T12:54:36.574Z,100110.47
2018-07-24T12:57:05.031Z,100112.69
2018-07-24T12:59:33.479Z,100110.12
2018-07-24T13:02:02.009Z,100104.98
2018-07-24T13:04:30.767Z,100100.84
2018-07-24T13:06:59.187Z,100091.53
2018-07-24T13:09:27.707Z,100087.47
2018-07-24T13:11:56.499Z,100097.58
2018-07-24T13:14:25.517Z,100092.20
2018-07-24T13:16:54.023Z,100093.44
2018-07-24T13:19:22.419Z,100089.34
2018-07-24T13:21:50.865Z,100086.12
2018-07-24T13:24:19.662Z,100079.56
2018-07-24T13:26:48.213Z,100075.64
2018-07-24T13:29:16.686Z,100076.25
2018-07-24T13:31:45.143Z,100077.97
2018-07-24T13:34:13.624Z,100078.84
2018-07-24T13:36:42.146Z,100076.17
2018-07-24T13:39:11.562Z,100069.69
2018-07-24T13:41:40.352Z,100070.25
2018-07-24T13:44:09.158Z,100067.87
2018-07-24T13:46:37.601Z,100072.45
2018-07-24T13:49:06.238Z,100072.03
2018-07-24T13:51:34.745Z,100069.98
2018-07-24T13:54:03.232Z,100067.16
2018-07-24T13:56:31.732Z,100069.17
2018-07-24T13:59:00.325Z,100055.08
2018-07-24T14:01:29.046Z,100056.67
2018-07-24T14:03:58.423Z,100052.61
2018-07-24T14:06:27.009Z,100052.30
2018-07-24T14:08:55.814Z,100059.33
2018-07-24T14:11:25.279Z,100045.70
2018-07-24T14:13:54.125Z,100052.04
2018-07-24T14:16:22.760Z,100046.55
2018-07-24T14:18:51.322Z,100048.64
2018-07-24T14:21:19.979Z,100047.83
2018-07-24T14:23:48.370Z,100048.51
2018-07-24T14:26:17.162Z,100041.07
2018-07-24T14:28:45.956Z,100042.08
2018-07-24T14:31:14.402Z,100041.57
2018-07-24T14:33:42.871Z,100037.88
2018-07-24T14:36:11.418Z,100030.08
2018-07-24T14:38:39.856Z,100033.27
2018-07-24T14:41:08.399Z,100022.70
2018-07-24T14:43:36.873Z,100022.95
2018-07-24T14:46:05.384Z,100017.27
2018-07-24T14:48:33.976Z,100017.34
2018-07-24T14:51:02.611Z,100016.55
2018-07-24T14:53:31.266Z,100021.39
2018-07-24T14:55:59.796Z,100009.81
2018-07-24T14:58:28.359Z,100007.70
2018-07-24T15:00:57.150Z,100004.46
2018-07-24T15:03:25.613Z,100004.39
2018-07-24T15:05:55.777Z,100007.05
2018-07-24T15:08:26.767Z,100006.16
2018-07-24T15:10:55.707Z,100002.95
2018-07-24T15:13:24.915Z,99998.83
2018-07-24T15:15:53.430Z,100000.08
2018-07-24T15:18:22.663Z,100003.59
2018-07-24T15:20:51.121Z,100004.02
2018-07-24T15:23:19.603Z,99999.08
2018-07-24T15:25:47.997Z,99999.48
2018-07-24T15:28:16.585Z,100006.72
2018-07-24T15:30:45.208Z,99999.27
2018-07-24T15:33:13.753Z,99993.34
2018-07-24T15:35:42.911Z,99993.00
2018-07-24T15:38:11.390Z,99991.61
2018-07-24T15:40:39.827Z,99987.91
2018-07-24T15:43:08.391Z,99987.20
2018-07-24T15:45:37.039Z,99985.91
2018-07-24T15:48:05.731Z,99985.31
2018-07-24T15:50:34.179Z,99986.51
2018-07-24T15:53:02.597Z,99985.75
2018-07-24T15:55:31.357Z,99976.38
2018-07-24T15:57:59.811Z,99976.28
2018-07-24T16:00:28.290Z,99986.25
2018-07-24T16:02:57.234Z,99979.64
2018-07-24T16:05:26.360Z,99975.95
2018-07-24T16:07:55.278Z,99977.28
2018-07-24T16:10:24.038Z,99975.83
2018-07-24T16:12:53.622Z,99978.02
2018-07-24T16:15:28.213Z,99975.08
2018-07-24T16:18:05.397Z,99965.23
2018-07-24T16:20:33.896Z,99967.91
2018-07-24T16:23:02.698Z,99965.05
2018-07-24T16:25:31.483Z,99963.98
2018-07-24T16:28:09.412Z,99964.94
2018-07-24T16:30:37.992Z,99962.92
2018-07-24T16:33:06.570Z,99958.38
2018-07-24T16:35:35.473Z,99956.25
2018-07-24T16:38:17.618Z,99955.15
2018-07-24T16:40:46.111Z,99960.70
2018-07-24T16:43:15.017Z,99958.32
2018-07-24T16:45:43.915Z,99963.26
2018-07-24T16:48:12.405Z,99957.95
2018-07-24T16:50:41.120Z,99958.47
2018-07-24T16:53:09.588Z,99952.21
2018-07-24T16:55:38.098Z,99958.04
2018-07-24T16:58:07.527Z,99958.34
2018-07-24T17:00:36.484Z,99960.30
2018-07-24T17:03:05.107Z,99962.88
2018-07-24T17:05:33.616Z,99958.22
2018-07-24T17:08:07.402Z,99962.81
2018-07-24T17:10:36.430Z,99956.75
2018-07-24T17:13:05.685Z,99962.58
2018-07-24T17:15:34.427Z,99963.03
2018-07-24T17:18:03.213Z,99962.34
2018-07-24T17:20:31.644Z,99961.86
2018-07-24T17:23:00.234Z,99962.03
2018-07-24T17:25:28.783Z,99968.38
2018-07-24T17:27:57.696Z,99962.98
2018-07-24T17:30:26.183Z,99963.16
2018-07-24T17:32:54.660Z,99969.39
2018-07-24T17:35:23.483Z,99966.64
2018-07-24T17:37:52.004Z,99974.45
2018-07-24T17:40:20.597Z,99968.96
2018-07-24T17:42:49.160Z,99970.36
2018-07-24T17:45:17.723Z,99975.48
2018-07-24T17:47:46.346Z,99963.13
2018-07-24T17:50:15.132Z,99974.32
2018-07-24T17:52:43.996Z,99975.33
2018-07-24T17:55:12.763Z,99978.07
2018-07-24T17:57:41.344Z,99977.31
2018-07-24T18:00:09.915Z,99979.69
2018-07-24T18:02:38.546Z,99979.34
2018-07-24T18:05:07.126Z,99979.59
2018-07-24T18:07:35.688Z,99989.06
2018-07-24T18:10:04.293Z,99987.08
2018-07-24T18:12:32.859Z,99987.63
2018-07-24T18:15:01.889Z,99991.05
2018-07-24T18:17:35.377Z,99991.77
2018-07-24T18:20:04.047Z,99997.64
2018-07-24T18:22:32.639Z,99994.19
2018-07-24T18:25:02.006Z,100000.52
2018-07-24T18:27:35.552Z,100004.21
2018-07-24T18:30:04.128Z,100001.65
2018-07-24T18:32:33.362Z,100002.47
2018-07-24T18:35:02.140Z,100003.31
2018-07-24T18:37:44.396Z,100004.92
2018-07-24T18:40:13.233Z,100000.38
2018-07-24T18:42:41.904Z,100003.73
2018-07-24T18:45:10.676Z,100001.05
2018-07-24T18:47:40.308Z,100007.53
2018-07-24T18:50:09.062Z,100006.05
2018-07-24T18:52:37.913Z,100003.91
2018-07-24T18:55:07.478Z,100004.97
2018-07-24T18:57:41.048Z,100009.09
2018-07-24T19:00:09.798Z,100006.02
2018-07-24T19:02:38.855Z,100008.56
2018-07-24T19:05:07.977Z,100017.45
2018-07-24T19:07:36.985Z,100018.62
2018-07-24T19:10:05.830Z,100016.73
2018-07-24T19:12:34.680Z,100025.34
2018-07-24T19:15:03.390Z,100028.50
2018-07-24T19:17:41.954Z,100025.88
2018-07-24T19:20:10.992Z,100024.33
2018-07-24T19:22:39.838Z,100024.74
2018-07-24T19:25:09.004Z,100041.77
2018-07-24T19:27:37.884Z,100038.11
2018-07-24T19:30:06.441Z,100043.78
2018-07-24T19:32:35.612Z,100047.94
2018-07-24T19:35:04.548Z,100048.81
2018-07-24T19:37:33.466Z,100044.59
2018-07-24T19:40:02.315Z,100050.11
2018-07-24T19:42:31.508Z,100047.78
2018-07-24T19:45:00.500Z,100049.95
2018-07-24T19:47:29.184Z,100057.00
2018-07-24T19:49:58.011Z,100057.27
2018-07-24T19:52:27.625Z,100060.30
2018-07-24T19:54:59.346Z,100057.44
2018-07-24T19:57:28.567Z,100061.99
2018-07-24T19:59:57.344Z,100060.69
2018-07-24T20:02:26.385Z,100063.65
2018-07-24T20:04:56.346Z,100064.23
2018-07-24T20:07:30.266Z,100074.03
2018-07-24T20:09:59.253Z,100078.33
2018-07-24T20:12:28.149Z,100080.17
2018-07-24T20:14:56.971Z,100079.85
2018-07-24T20:17:25.734Z,100085.36
2018-07-24T20:19:54.665Z,100079.97
2018-07-24T20:22:27.619Z,100079.58
2018-07-24T20:24:57.009Z,100081.88
2018-07-24T20:27:25.838Z,100089.52
2018-07-24T20:29:59.036Z,100081.53
2018-07-24T20:32:29.902Z,100081.55
2018-07-24T20:34:58.694Z,100078.02
2018-07-24T20:40:19.990Z,100082.34
2018-07-24T20:42:49.255Z,100083.58
2018-07-24T20:45:17.826Z,100077.61
2018-07-24T20:47:46.402Z,100082.15
2018-07-24T20:50:14.906Z,100081.44
2018-07-24T20:52:43.426Z,100077.14
2018-07-24T20:55:12.166Z,100083.21
2018-07-24T20:57:41.400Z,100078.91
2018-07-24T21:00:10.084Z,100082.59
2018-07-24T21:02:38.736Z,100080.61
2018-07-24T21:05:07.810Z,100082.41
2018-07-24T21:07:36.322Z,100083.04
2018-07-24T21:10:09.026Z,100078.41
2018-07-24T21:12:37.451Z,100081.55
2018-07-24T21:15:07.828Z,100087.04
2018-07-24T21:17:36.688Z,100086.08
2018-07-24T21:20:05.210Z,100094.43
2018-07-24T21:22:34.114Z,100093.66
2018-07-24T21:25:02.994Z,100093.06
2018-07-24T21:27:31.748Z,100098.72
2018-07-24T21:30:00.335Z,100089.39
2018-07-24T21:32:29.128Z,100092.13
2018-07-24T21:34:57.543Z,100096.03
2018-07-24T21:37:26.090Z,100092.14
2018-07-24T21:39:54.567Z,100095.85
2018-07-24T21:42:23.062Z,100095.47
2018-07-24T21:44:51.622Z,100094.72
2018-07-24T21:47:21.137Z,100091.06
2018-07-24T21:49:49.717Z,100090.91
2018-07-24T21:52:18.290Z,100091.55
2018-07-24T21:54:47.428Z,100093.12
2018-07-24T21:57:17.417Z,100092.16
2018-07-24T21:59:45.935Z,100096.06
2018-07-24T22:02:14.450Z,100098.81
2018-07-24T22:04:44.575Z,100098.45
2018-07-24T22:07:18.270Z,100098.06
2018-07-24T22:09:46.772Z,100100.80
2018-07-24T22:12:15.370Z,100100.24
2018-07-24T22:14:43.983Z,100096.17
2018-07-24T22:17:12.634Z,100097.73
2018-07-24T22:19:41.409Z,100100.47
2018-07-24T22:22:10.048Z,100101.06
2018-07-24T22:24:38.663Z,100105.16
2018-07-24T22:27:09.447Z,100109.23
2018-07-24T22:29:38.019Z,100109.05
2018-07-24T22:32:06.898Z,100107.69
2018-07-24T22:34:35.607Z,100108.09
2018-07-24T22:37:09.617Z,100108.30
2018-07-24T22:39:39.136Z,100111.03
2018-07-24T22:42:07.952Z,100109.30
2018-07-24T22:44:37.466Z,100112.61
2018-07-24T22:47:15.690Z,100112.81
2018-07-24T22:49:44.347Z,100117.15
2018-07-24T22:52:12.929Z,100113.05
2018-07-24T22:54:41.521Z,100113.62
2018-07-24T22:57:23.758Z,100117.72
2018-07-24T22:59:52.390Z,100118.72
2018-07-24T23:02:21.319Z,100118.33
2018-07-24T23:04:50.180Z,100118.33
2018-07-24T23:07:19.225Z,100121.09
2018-07-24T23:09:48.167Z,100112.14
2018-07-24T23:12:17.397Z,100117.20
2018-07-24T23:14:48.909Z,100120.91
2018-07-24T23:17:18.681Z,100116.64
2018-07-24T23:19:51.127Z,100121.91
2018-07-24T23:22:20.489Z,100121.70
2018-07-24T23:24:49.823Z,100127.37
2018-07-24T23:27:19.771Z,100127.56
2018-07-24T23:29:48.395Z,100129.70
2018-07-24T23:32:16.948Z,100120.94
2018-07-24T23:34:45.449Z,100122.67
2018-07-24T23:37:13.978Z,100124.64
2018-07-24T23:39:42.950Z,100124.63
2018-07-24T23:42:12.673Z,100119.58
2018-07-24T23:44:41.577Z,100119.18
2018-07-24T23:47:10.849Z,100119.17
2018-07-24T23:49:39.802Z,100119.97
2018-07-24T23:52:11.297Z,100117.84
2018-07-24T23:54:40.655Z,100123.70
2018-07-24T23:57:09.567Z,100122.89
2018-07-24T23:59:38.290Z,100123.89
